Rechercher aéroport 
image banner adimage banner adimage banner ad
image banner ad

4PA6 - Hiawatha

Situé à Starlight, United States

ICAO - 4PA6, IATA -

Données fournies par Airmate  

Information générale

Coordonnées: N41°54'54" W75°21'52"
Élévation : 1670 feet MSL.
Variation magnétique : -13° East
Voir autres Aéroports à Pennsylvania

Données opérationnelles

Special qualification required
Heure actuelle UTC:
Heure actuelle locale:
Météo à : KMSV - Sullivan County Intl ( 53 km )
METAR: KMSV 132115Z AUTO 18006KT 10SM FEW018 22/17 A2991 RMK AO2
Voir NOTAMs / SUP AIP / TFR affectant cet aéroport [VIEW]
Fréquences de communication: [VIEW]

Pistes:

Identifiant RWYQFULongueur (ft)Largeur (ft)SurfaceLDA (ft)
033100100GRASS
213100100GRASS

Coordonnées de l'aéroport

Adresse: Starlight United States

Vue satellite de 4PA6